WEATHER DATA

YESTERDAY
Time Temp. Dewp. Hum. Wind dir Wind speed Wind gust Bar. 1h Prec. 24h Prec.
00:09 4.5 0.5 75 45 0.3 1.1 1020.5 0.0000 0.0000
00:19 4.4 0.4 75 48 0.3 0.8 1020.8 0.0000 0.0000
00:29 4.2 0.2 75 51 0.3 0.8 1020.7 0.0000 0.0000
00:39 4.2 0.4 76 45 0.3 0.8 1020.8 0.0000 0.0000
00:49 4.1 0.3 76 45 0.3 0.6 1020.6 0.0000 0.0000
00:59 4.1 0.3 76 45 0.3 0.6 1020.8 0.0000 0.0000
01:09 4 0.3 77 40 0.3 0.6 1020.7 0.0000 0.0000
01:19 4 0.3 77 39 0.3 0.6 1020.8 0.0000 0.0000
01:29 4 0.3 77 45 0.3 0.6 1020.7 0.0000 0.0000
01:39 3.9 0.2 77 45 0.3 0.6 1020.7 0.0000 0.0000
01:49 3.9 0.4 78 50 0.3 0.6 1020.8 0.0000 0.0000
02:00 3.9 0.4 78 45 0.3 0.6 1020.7 0.0000 0.0000
02:09 3.8 0.3 78 45 0.3 0.6 1020.5 0.0000 0.0000
02:19 3.8 0.3 78 49 0.3 0.6 1020.5 0.0000 0.0000
02:30 3.6 0.1 78 56 0.3 0.8 1020.5 0.0000 0.0000
02:40 3.6 0.1 78 53 0.3 0.6 1020.5 0.0000 0.0000
02:50 3.5 0 78 21 0.3 0.6 1020.3 0.0000 0.0000
03:00 3.4 -0.1 78 25 0.3 0.6 1020.2 0.0000 0.0000
03:10 3.4 0.1 79 40 0.3 0.6 1020.2 0.0000 0.0000
03:20 3.3 0 79 45 0.3 0.6 1020.1 0.0000 0.0000
03:30 3.2 -0.1 79 45 0.3 0.6 1020.1 0.0000 0.0000
03:41 3.1 -0.2 79 40 0.3 0.6 1020 0.0000 0.0000
03:50 3.1 -0.2 79 48 0.3 0.6 1020 0.0000 0.0000
04:00 3 -0.2 79 40 0.3 0.6 1020 0.0000 0.0000
04:10 2.9 -0.3 79 45 0.3 0.8 1020 0.0000 0.0000
04:19 2.8 -0.4 79 53 0.3 0.8 1019.9 0.0000 0.0000
04:29 2.6 -0.6 79 51 0.3 0.8 1020.1 0.0000 0.0000
04:39 2.4 -0.8 79 50 0.6 1.1 1020 0.0000 0.0000
04:50 2.3 -0.7 80 48 0.3 0.8 1020 0.0000 0.0000
05:00 2.2 -0.8 80 53 0.6 0.8 1020.1 0.0000 0.0000
05:09 2.1 -0.9 80 51 0.3 0.8 1020.1 0.0000 0.0000
05:20 2 -0.8 81 45 0.3 0.6 1020 0.0000 0.0000
05:30 2 -0.8 81 48 0.3 0.8 1020.1 0.0000 0.0000
05:40 2 -0.8 81 45 0.3 0.8 1020.2 0.0000 0.0000
05:50 1.9 -0.9 81 45 0.3 0.6 1020.1 0.0000 0.0000
06:01 1.9 -0.9 81 45 0.3 0.6 1020.2 0.0000 0.0000
06:11 1.9 -0.9 81 45 0.3 0.6 1020.1 0.0000 0.0000
06:20 1.9 -0.9 81 45 0.3 0.6 1020.1 0.0000 0.0000
06:31 1.9 -0.7 82 45 0.3 0.6 1020.2 0.0000 0.0000
06:41 2 -0.7 82 51 0.3 0.6 1020.1 0.0000 0.0000
06:51 1.9 -0.7 82 45 0.3 0.6 1019.9 0.0000 0.0000
07:01 1.9 -0.7 82 53 0.3 0.6 1020.1 0.0000 0.0000
07:11 1.9 -0.7 82 50 0.3 0.6 1020.1 0.0000 0.0000
07:21 1.8 -0.8 82 45 0.3 0.6 1020.1 0.0000 0.0000
07:31 1.8 -0.8 82 59 0.3 0.6 1020.2 0.0000 0.0000
07:42 1.7 -0.9 82 39 0.3 0.6 1020.3 0.0000 0.0000
07:52 1.7 -0.9 82 45 0.3 0.6 1020.3 0.0000 0.0000
08:11 1.7 -0.9 82 55 0.3 0.6 1020.3 0.0000 0.0000
08:22 1.8 -0.7 83 45 0.3 0.6 1020.6 0.0000 0.0000
08:32 1.8 -0.7 83 90 0.3 0.6 1020.3 0.0000 0.0000
08:42 2 -0.5 83 90 0.3 0.6 1020.3 0.0000 0.0000
08:52 2.2 -0.3 83 90 0.3 0.6 1020.2 0.0000 0.0000
09:02 2.4 -0.2 83 45 0.3 0.8 1020.2 0.0000 0.0000
09:12 2.6 0 83 225 0.6 0.8 1020.1 0.0000 0.0000
09:22 3 0.4 83 90 0.6 0.8 1020.2 0.0000 0.0000
09:32 3.3 0.7 83 90 0.6 0.8 1020.1 0.0000 0.0000
09:42 3.4 0.6 82 21 0.3 0.6 1020.1 0.0000 0.0000
09:52 3.7 0.9 82 12 0.3 0.6 1019.9 0.0000 0.0000
10:02 4 1.4 83 90 0.3 1.1 1019.8 0.0000 0.0000
10:13 4.3 1.7 83 90 0.3 0.8 1019.7 0.0000 0.0000
10:22 4.5 1.9 83 90 0.3 0.8 1019.8 0.0000 0.0000
10:32 4.8 2.2 83 90 0.3 0.8 1019.7 0.0000 0.0000
10:43 5.2 2.6 83 90 0.3 0.6 1019.7 0.0000 0.0000
10:53 5.7 2.9 82 90 0.3 0.8 1019.6 0.0000 0.0000
11:03 6.2 3.4 82 90 0.3 0.8 1019.6 0.0000 0.0000
11:13 6.5 3.5 81 90 0.3 0.8 1019.5 0.0000 0.0000
11:23 7.1 4.1 81 90 0.3 0.8 1019.4 0.0000 0.0000
11:33 7.6 4.2 79 90 0.3 0.8 1019.4 0.0000 0.0000
11:43 8.2 4.4 77 326 0.3 0.6 1019.2 0.0000 0.0000
11:53 8.8 4.6 75 90 0.3 1.1 1019.2 0.0000 0.0000
12:03 9.7 5.3 74 90 0.3 0.6 1018.9 0.0000 0.0000
12:13 10.2 5.2 71 123 0.3 1.1 1018.8 0.0000 0.0000
12:23 10.6 3.6 62 127 0.6 1.7 1018.9 0.0000 0.0000
12:34 11.1 3.9 61 135 0.3 1.7 1018.6 0.0000 0.0000
12:43 11.5 4.2 61 127 0.6 1.9 1018.6 0.0000 0.0000
12:53 12 4 58 90 0.6 1.7 1018.5 0.0000 0.0000
13:04 12.2 3.2 54 90 0.3 1.1 1018.3 0.0000 0.0000
13:14 12.6 3.5 54 90 0.3 0.6 1018.2 0.0000 0.0000
13:24 12.8 3.7 54 122 0.3 1.4 1018.1 0.0000 0.0000
13:34 13 3.9 54 131 0.6 1.4 1017.9 0.0000 0.0000
13:44 13.2 4.1 54 90 0.3 0.8 1017.7 0.0000 0.0000
13:54 13.4 4.3 54 90 0.3 1.1 1017.7 0.0000 0.0000
14:04 13.7 4.3 53 8 0.3 0.8 1017.5 0.0000 0.0000
14:14 13.9 4.8 54 33 0.3 0.6 1017.4 0.0000 0.0000
14:24 14.1 4.4 52 45 0.3 0.8 1017.4 0.0000 0.0000
14:34 14.3 4.6 52 90 0.3 0.8 1017.3 0.0000 0.0000
14:44 14.4 4.1 50 90 0.3 0.6 1017.2 0.0000 0.0000
14:55 14.6 5.4 54 90 0.3 0.6 1017.1 0.0000 0.0000
15:04 14.8 4.8 51 37 0.3 0.6 1017.1 0.0000 0.0000
15:14 14.8 3.6 47 90 0.3 0.8 1016.8 0.0000 0.0000
15:25 14.8 3.6 47 90 0.3 0.8 1017 0.0000 0.0000
15:35 14.9 4 48 45 0.3 0.6 1017 0.0000 0.0000
15:45 14.8 3.9 48 90 0.3 0.8 1016.8 0.0000 0.0000
15:55 14.8 3.3 46 90 0.3 1.4 1016.8 0.0000 0.0000
16:05 14.8 3.6 47 90 0.3 0.6 1016.6 0.0000 0.0000
16:15 15 4.4 49 90 0.3 0.8 1016.6 0.0000 0.0000
16:25 15.4 4.2 47 90 0.3 0.6 1016.5 0.0000 0.0000
16:35 15.6 4.6 48 90 0.3 0.8 1016.3 0.0000 0.0000
16:45 15.9 5.5 50 90 0.3 0.6 1016.2 0.0000 0.0000
16:55 15.7 5.3 50 57 0.3 0.6 1016.2 0.0000 0.0000
17:16 14.9 4.6 50 59 0.3 0.6 1016.1 0.0000 0.0000
17:25 14.5 4.5 51 53 0.3 0.6 1016 0.0000 0.0000
17:35 13.9 3.9 51 56 0.3 0.6 1016.1 0.0000 0.0000
17:46 13.4 3.8 52 49 0.3 0.6 1016.2 0.0000 0.0000
17:56 12.9 3.6 53 52 0.3 0.6 1016.1 0.0000 0.0000
18:06 12.5 3.5 54 59 0.3 0.6 1016.1 0.0000 0.0000
18:16 12.1 3.1 54 90 0.3 0.6 1016.1 0.0000 0.0000
18:26 11.7 3 55 57 0.3 0.6 1015.9 0.0000 0.0000
18:36 11.2 2.8 56 90 0.3 0.6 1016 0.0000 0.0000
18:46 10.9 2.5 56 53 0.3 0.6 1016 0.0000 0.0000
18:56 10.5 2.4 57 50 0.3 0.6 1016 0.0000 0.0000
19:06 10.2 2.1 57 90 0.3 0.6 1016.1 0.0000 0.0000
19:16 9.9 2 58 53 0.3 0.6 1015.9 0.0000 0.0000
19:26 9.7 2.1 59 53 0.3 0.6 1015.9 0.0000 0.0000
19:37 9.4 1.8 59 90 0.3 0.6 1015.9 0.0000 0.0000
19:46 9.1 1.5 59 90 0.3 0.6 1015.9 0.0000 0.0000
19:56 8.8 1.5 60 90 0.3 0.8 1016 0.0000 0.0000
20:07 8.5 1.4 61 11 0.3 0.6 1016 0.0000 0.0000
20:17 8.3 1.5 62 54 0.3 0.6 1016 0.0000 0.0000
20:27 8.1 1.5 63 45 0.3 0.8 1016.2 0.0000 0.0000
20:37 7.9 1.3 63 21 0.3 0.6 1016.2 0.0000 0.0000
20:47 7.7 1.3 64 52 0.3 0.8 1016.1 0.0000 0.0000
20:57 7.5 1.4 65 56 0.3 0.6 1016.2 0.0000 0.0000
21:07 7.3 1.2 65 36 0.3 0.6 1016.3 0.0000 0.0000
21:18 7.2 1.3 66 45 0.3 0.6 1016.3 0.0000 0.0000
21:27 7.1 1.2 66 90 0.3 0.6 1016.2 0.0000 0.0000
21:37 7 1.1 66 45 0.3 0.6 1016.4 0.0000 0.0000
21:47 6.8 1.1 67 50 0.3 0.6 1016.2 0.0000 0.0000
21:58 6.7 1 67 57 0.3 0.6 1016.2 0.0000 0.0000
22:07 6.6 1.1 68 45 0.3 0.6 1016.3 0.0000 0.0000
22:17 6.4 0.9 68 40 0.3 0.6 1016.2 0.0000 0.0000
22:28 6.3 1 69 57 0.3 0.6 1016.3 0.0000 0.0000
22:38 6.2 0.9 69 45 0.3 0.6 1016.3 0.0000 0.0000
22:48 6.1 0.8 69 54 0.3 0.6 1016.2 0.0000 0.0000
22:58 5.9 0.7 69 59 0.3 0.6 1016.4 0.0000 0.0000
23:08 5.7 0.7 70 0 0.6 1016.3 0.0000 0.0000
23:18 5.6 0.6 70 60 0.3 0.6 1016.4 0.0000 0.0000
23:28 5.4 0.6 71 50 0.3 0.6 1016.3 0.0000 0.0000
23:39 5.3 0.5 71 40 0.3 0.8 1016.3 0.0000 0.0000
23:48 5.1 0.3 71 49 0.3 0.6 1016.2 0.0000 0.0000
23:58 5 0.4 72 51 0.3 0.6 1016.4 0.0000 0.0000

DAY STATISTIC

2019-02-18
TEMPERATURE
AVERAGE
7.1
HIGH
15.9
16:45
LOW
1.7
07:42
PRESSURE
AVERAGE
1018.4
HIGH
1020.8
00:19
LOW
1015.9
18:26
DEWPOINT
AVERAGE
1.6
HIGH
5.5
16:45
LOW
-0.9
05:09
HUMIDITY
AVERAGE
69
HIGH
83
08:22
LOW
46
15:55
WIND SPEED
AVERAGE
0.3
HIGH
0.6
04:39
WIND GUST
AVERAGE
0.7
HIGH
1.9
12:43
WIND DIRECTION
PREVAILING
NE
60.3%
N
4.3
NE
60.3
E
29.1
SE
4.3
S
0.0
SW
0.7
W
0.0
NW
0.7
PRECIPITATION
RAIN HOUR
0.0
RAIN DAY
0.0
TEMPERATURE (°C)
LOW
1.7
HIGH
15.9
AVERAGE
7.1
PRESSURE (hpa)
LOW
1015.9
HIGH
1020.8
AVERAGE
1018.4
DEVICE